sensor_id;sensor_type;location;lat;lon;timestamp;temperature;humidity
45803;DHT22;31504;51.716;9.184;2022-07-23T00:00:43;24.60;55.90
45803;DHT22;31504;51.716;9.184;2022-07-23T00:03:44;24.60;55.90
45803;DHT22;31504;51.716;9.184;2022-07-23T00:06:45;24.60;55.90
45803;DHT22;31504;51.716;9.184;2022-07-23T00:09:45;24.60;55.90
45803;DHT22;31504;51.716;9.184;2022-07-23T00:12:46;24.60;55.90
45803;DHT22;31504;51.716;9.184;2022-07-23T00:15:46;24.60;55.90
45803;DHT22;31504;51.716;9.184;2022-07-23T00:18:47;24.60;55.80
45803;DHT22;31504;51.716;9.184;2022-07-23T00:21:47;24.60;55.80
45803;DHT22;31504;51.716;9.184;2022-07-23T00:24:48;24.50;55.70
45803;DHT22;31504;51.716;9.184;2022-07-23T00:27:49;24.60;55.80
45803;DHT22;31504;51.716;9.184;2022-07-23T00:30:49;24.60;55.80
45803;DHT22;31504;51.716;9.184;2022-07-23T00:33:50;24.60;55.80
45803;DHT22;31504;51.716;9.184;2022-07-23T00:36:50;24.60;55.80
45803;DHT22;31504;51.716;9.184;2022-07-23T00:39:53;24.60;55.80
45803;DHT22;31504;51.716;9.184;2022-07-23T00:42:54;24.60;55.80
45803;DHT22;31504;51.716;9.184;2022-07-23T00:45:54;24.60;55.80
45803;DHT22;31504;51.716;9.184;2022-07-23T00:48:55;24.60;55.70
45803;DHT22;31504;51.716;9.184;2022-07-23T00:51:56;24.60;55.70
45803;DHT22;31504;51.716;9.184;2022-07-23T00:54:57;24.50;55.70
45803;DHT22;31504;51.716;9.184;2022-07-23T00:57:58;24.50;55.70
45803;DHT22;31504;51.716;9.184;2022-07-23T01:00:59;24.50;55.70
45803;DHT22;31504;51.716;9.184;2022-07-23T01:03:59;24.50;55.60
45803;DHT22;31504;51.716;9.184;2022-07-23T01:07:00;24.60;55.70
45803;DHT22;31504;51.716;9.184;2022-07-23T01:10:01;24.50;55.60
45803;DHT22;31504;51.716;9.184;2022-07-23T01:13:05;24.50;55.60
45803;DHT22;31504;51.716;9.184;2022-07-23T01:16:05;24.50;55.60
45803;DHT22;31504;51.716;9.184;2022-07-23T01:19:06;24.50;55.60
45803;DHT22;31504;51.716;9.184;2022-07-23T01:22:07;24.50;55.60
45803;DHT22;31504;51.716;9.184;2022-07-23T01:25:08;24.50;55.60
45803;DHT22;31504;51.716;9.184;2022-07-23T01:28:09;24.50;55.60
45803;DHT22;31504;51.716;9.184;2022-07-23T01:31:09;24.50;55.50
45803;DHT22;31504;51.716;9.184;2022-07-23T01:34:10;24.50;55.50
45803;DHT22;31504;51.716;9.184;2022-07-23T01:37:10;24.50;55.50
45803;DHT22;31504;51.716;9.184;2022-07-23T01:40:11;24.50;55.50
45803;DHT22;31504;51.716;9.184;2022-07-23T01:43:11;24.50;55.50
45803;DHT22;31504;51.716;9.184;2022-07-23T01:46:12;24.50;55.50
45803;DHT22;31504;51.716;9.184;2022-07-23T01:49:12;24.50;55.50
45803;DHT22;31504;51.716;9.184;2022-07-23T01:52:13;24.50;55.50
45803;DHT22;31504;51.716;9.184;2022-07-23T01:55:13;24.50;55.40
45803;DHT22;31504;51.716;9.184;2022-07-23T01:58:14;24.50;55.50
45803;DHT22;31504;51.716;9.184;2022-07-23T02:01:14;24.50;55.50
45803;DHT22;31504;51.716;9.184;2022-07-23T02:04:15;24.50;55.50
45803;DHT22;31504;51.716;9.184;2022-07-23T02:07:16;24.50;55.50
45803;DHT22;31504;51.716;9.184;2022-07-23T02:10:16;24.50;55.50
45803;DHT22;31504;51.716;9.184;2022-07-23T02:13:17;24.50;55.50
45803;DHT22;31504;51.716;9.184;2022-07-23T02:16:18;24.50;55.50
45803;DHT22;31504;51.716;9.184;2022-07-23T02:19:18;24.50;55.50
45803;DHT22;31504;51.716;9.184;2022-07-23T02:22:19;24.50;55.50
45803;DHT22;31504;51.716;9.184;2022-07-23T02:25:19;24.50;55.50
45803;DHT22;31504;51.716;9.184;2022-07-23T02:28:20;24.50;55.50
45803;DHT22;31504;51.716;9.184;2022-07-23T02:31:20;24.50;55.50
45803;DHT22;31504;51.716;9.184;2022-07-23T02:34:21;24.50;55.50
45803;DHT22;31504;51.716;9.184;2022-07-23T02:37:21;24.50;55.50
45803;DHT22;31504;51.716;9.184;2022-07-23T02:40:22;24.50;55.50
45803;DHT22;31504;51.716;9.184;2022-07-23T02:43:22;24.50;55.50
45803;DHT22;31504;51.716;9.184;2022-07-23T02:46:23;24.50;55.50
45803;DHT22;31504;51.716;9.184;2022-07-23T02:49:23;24.50;55.50
45803;DHT22;31504;51.716;9.184;2022-07-23T02:52:24;24.50;55.50
45803;DHT22;31504;51.716;9.184;2022-07-23T02:55:25;24.50;55.60
45803;DHT22;31504;51.716;9.184;2022-07-23T02:58:25;24.40;55.60
45803;DHT22;31504;51.716;9.184;2022-07-23T03:01:26;24.40;55.60
45803;DHT22;31504;51.716;9.184;2022-07-23T03:04:27;24.50;55.70
45803;DHT22;31504;51.716;9.184;2022-07-23T03:07:27;24.50;55.70
45803;DHT22;31504;51.716;9.184;2022-07-23T03:10:28;24.50;55.70
45803;DHT22;31504;51.716;9.184;2022-07-23T03:13:28;24.40;55.70
45803;DHT22;31504;51.716;9.184;2022-07-23T03:16:29;24.50;55.70
45803;DHT22;31504;51.716;9.184;2022-07-23T03:19:30;24.40;55.70
45803;DHT22;31504;51.716;9.184;2022-07-23T03:22:30;24.50;55.80
45803;DHT22;31504;51.716;9.184;2022-07-23T03:25:31;24.40;55.80
45803;DHT22;31504;51.716;9.184;2022-07-23T03:28:32;24.50;55.80
45803;DHT22;31504;51.716;9.184;2022-07-23T03:31:32;24.50;55.80
45803;DHT22;31504;51.716;9.184;2022-07-23T03:34:33;24.40;55.80
45803;DHT22;31504;51.716;9.184;2022-07-23T03:37:33;24.40;56.10
45803;DHT22;31504;51.716;9.184;2022-07-23T03:40:34;24.50;55.90
45803;DHT22;31504;51.716;9.184;2022-07-23T03:43:34;24.50;55.90
45803;DHT22;31504;51.716;9.184;2022-07-23T03:46:35;24.50;55.90
45803;DHT22;31504;51.716;9.184;2022-07-23T03:49:35;24.50;56.00
45803;DHT22;31504;51.716;9.184;2022-07-23T03:52:36;24.40;55.90
45803;DHT22;31504;51.716;9.184;2022-07-23T03:55:36;24.40;56.00
45803;DHT22;31504;51.716;9.184;2022-07-23T03:58:37;24.40;56.00
45803;DHT22;31504;51.716;9.184;2022-07-23T04:01:37;24.40;56.00
45803;DHT22;31504;51.716;9.184;2022-07-23T04:04:38;24.40;56.10
45803;DHT22;31504;51.716;9.184;2022-07-23T04:07:38;24.40;56.10
45803;DHT22;31504;51.716;9.184;2022-07-23T04:10:40;24.40;56.10
45803;DHT22;31504;51.716;9.184;2022-07-23T04:13:41;24.40;56.10
45803;DHT22;31504;51.716;9.184;2022-07-23T04:16:41;24.40;56.20
45803;DHT22;31504;51.716;9.184;2022-07-23T04:19:42;24.40;56.10
45803;DHT22;31504;51.716;9.184;2022-07-23T04:22:44;24.40;56.10
45803;DHT22;31504;51.716;9.184;2022-07-23T04:25:44;24.40;56.20
45803;DHT22;31504;51.716;9.184;2022-07-23T04:28:45;24.40;56.20
45803;DHT22;31504;51.716;9.184;2022-07-23T04:31:45;24.40;56.20
45803;DHT22;31504;51.716;9.184;2022-07-23T04:34:46;24.40;56.30
45803;DHT22;31504;51.716;9.184;2022-07-23T04:37:46;24.40;56.30
45803;DHT22;31504;51.716;9.184;2022-07-23T04:40:47;24.40;56.30
45803;DHT22;31504;51.716;9.184;2022-07-23T04:43:47;24.40;56.30
45803;DHT22;31504;51.716;9.184;2022-07-23T04:46:48;24.40;56.30
45803;DHT22;31504;51.716;9.184;2022-07-23T04:49:48;24.40;56.30
45803;DHT22;31504;51.716;9.184;2022-07-23T04:52:49;24.40;56.30
45803;DHT22;31504;51.716;9.184;2022-07-23T04:55:49;24.40;56.30
45803;DHT22;31504;51.716;9.184;2022-07-23T04:58:50;24.40;56.40
45803;DHT22;31504;51.716;9.184;2022-07-23T05:01:50;24.40;56.40
45803;DHT22;31504;51.716;9.184;2022-07-23T05:04:51;24.40;56.40
45803;DHT22;31504;51.716;9.184;2022-07-23T05:07:51;24.40;56.40
45803;DHT22;31504;51.716;9.184;2022-07-23T05:10:52;24.40;56.30
45803;DHT22;31504;51.716;9.184;2022-07-23T05:13:52;24.40;56.40
45803;DHT22;31504;51.716;9.184;2022-07-23T05:16:53;24.40;56.40
45803;DHT22;31504;51.716;9.184;2022-07-23T05:19:54;24.40;56.40
45803;DHT22;31504;51.716;9.184;2022-07-23T05:22:54;24.40;56.40
45803;DHT22;31504;51.716;9.184;2022-07-23T05:25:55;24.40;56.40
45803;DHT22;31504;51.716;9.184;2022-07-23T05:28:55;24.40;56.50
45803;DHT22;31504;51.716;9.184;2022-07-23T05:31:56;24.40;56.50
45803;DHT22;31504;51.716;9.184;2022-07-23T05:34:56;24.40;56.50
45803;DHT22;31504;51.716;9.184;2022-07-23T05:37:57;24.40;56.50
45803;DHT22;31504;51.716;9.184;2022-07-23T05:40:58;24.40;56.60
45803;DHT22;31504;51.716;9.184;2022-07-23T05:43:58;24.40;56.50
45803;DHT22;31504;51.716;9.184;2022-07-23T05:46:59;24.40;56.50
45803;DHT22;31504;51.716;9.184;2022-07-23T05:49:59;24.40;56.60
45803;DHT22;31504;51.716;9.184;2022-07-23T05:53:00;24.40;56.50
45803;DHT22;31504;51.716;9.184;2022-07-23T05:56:00;24.40;56.60
45803;DHT22;31504;51.716;9.184;2022-07-23T05:59:01;24.40;57.10
45803;DHT22;31504;51.716;9.184;2022-07-23T06:02:02;24.40;56.50
45803;DHT22;31504;51.716;9.184;2022-07-23T06:05:02;24.40;56.50
45803;DHT22;31504;51.716;9.184;2022-07-23T06:08:03;24.40;56.50
45803;DHT22;31504;51.716;9.184;2022-07-23T06:11:03;24.40;56.50
45803;DHT22;31504;51.716;9.184;2022-07-23T06:14:04;24.40;56.50
45803;DHT22;31504;51.716;9.184;2022-07-23T06:17:04;24.30;56.50
45803;DHT22;31504;51.716;9.184;2022-07-23T06:20:06;24.40;56.50
45803;DHT22;31504;51.716;9.184;2022-07-23T06:23:07;24.40;56.50
45803;DHT22;31504;51.716;9.184;2022-07-23T06:26:08;24.40;56.50
45803;DHT22;31504;51.716;9.184;2022-07-23T06:29:08;24.40;56.50
45803;DHT22;31504;51.716;9.184;2022-07-23T06:32:09;24.40;56.50
45803;DHT22;31504;51.716;9.184;2022-07-23T06:35:10;24.40;56.50
45803;DHT22;31504;51.716;9.184;2022-07-23T06:38:10;24.40;56.50
45803;DHT22;31504;51.716;9.184;2022-07-23T06:41:11;24.40;56.50
45803;DHT22;31504;51.716;9.184;2022-07-23T06:44:11;24.40;56.60
45803;DHT22;31504;51.716;9.184;2022-07-23T06:47:12;24.40;56.50
45803;DHT22;31504;51.716;9.184;2022-07-23T06:50:12;24.40;56.50
45803;DHT22;31504;51.716;9.184;2022-07-23T06:53:13;24.40;56.50
45803;DHT22;31504;51.716;9.184;2022-07-23T06:56:14;24.40;56.50
45803;DHT22;31504;51.716;9.184;2022-07-23T06:59:14;24.40;56.50
45803;DHT22;31504;51.716;9.184;2022-07-23T07:02:15;24.40;56.50
45803;DHT22;31504;51.716;9.184;2022-07-23T07:05:15;24.40;56.50
45803;DHT22;31504;51.716;9.184;2022-07-23T07:08:16;24.40;56.50
45803;DHT22;31504;51.716;9.184;2022-07-23T07:11:16;24.40;56.50
45803;DHT22;31504;51.716;9.184;2022-07-23T07:14:17;24.40;56.50
45803;DHT22;31504;51.716;9.184;2022-07-23T07:17:17;24.30;56.50
45803;DHT22;31504;51.716;9.184;2022-07-23T07:20:18;24.40;56.50
45803;DHT22;31504;51.716;9.184;2022-07-23T07:23:19;24.40;56.50
45803;DHT22;31504;51.716;9.184;2022-07-23T07:26:20;24.40;57.10
45803;DHT22;31504;51.716;9.184;2022-07-23T07:29:21;24.40;57.10
45803;DHT22;31504;51.716;9.184;2022-07-23T07:32:21;24.40;56.50
45803;DHT22;31504;51.716;9.184;2022-07-23T07:35:22;24.40;57.10
45803;DHT22;31504;51.716;9.184;2022-07-23T07:38:23;24.40;56.50
45803;DHT22;31504;51.716;9.184;2022-07-23T07:41:24;24.40;56.50
45803;DHT22;31504;51.716;9.184;2022-07-23T07:44:26;24.40;56.50
45803;DHT22;31504;51.716;9.184;2022-07-23T07:47:27;24.40;56.50
45803;DHT22;31504;51.716;9.184;2022-07-23T07:50:27;24.40;56.50
45803;DHT22;31504;51.716;9.184;2022-07-23T07:53:28;24.40;56.50
45803;DHT22;31504;51.716;9.184;2022-07-23T07:56:28;24.40;56.40
45803;DHT22;31504;51.716;9.184;2022-07-23T07:59:29;24.40;56.40
45803;DHT22;31504;51.716;9.184;2022-07-23T08:02:39;24.40;56.40
45803;DHT22;31504;51.716;9.184;2022-07-23T08:05:40;24.40;56.40
45803;DHT22;31504;51.716;9.184;2022-07-23T08:08:40;24.40;56.30
45803;DHT22;31504;51.716;9.184;2022-07-23T08:11:41;24.40;56.30
45803;DHT22;31504;51.716;9.184;2022-07-23T08:14:42;24.40;56.30
45803;DHT22;31504;51.716;9.184;2022-07-23T08:17:43;24.40;56.20
45803;DHT22;31504;51.716;9.184;2022-07-23T08:20:44;24.40;56.20
45803;DHT22;31504;51.716;9.184;2022-07-23T08:23:44;24.40;56.20
45803;DHT22;31504;51.716;9.184;2022-07-23T08:26:45;24.40;56.10
45803;DHT22;31504;51.716;9.184;2022-07-23T08:29:45;24.40;56.00
45803;DHT22;31504;51.716;9.184;2022-07-23T08:32:57;24.40;56.00
45803;DHT22;31504;51.716;9.184;2022-07-23T08:36:00;24.40;55.90
45803;DHT22;31504;51.716;9.184;2022-07-23T08:39:02;24.40;56.00
45803;DHT22;31504;51.716;9.184;2022-07-23T08:42:04;24.40;55.90
45803;DHT22;31504;51.716;9.184;2022-07-23T08:45:07;24.40;55.90
45803;DHT22;31504;51.716;9.184;2022-07-23T08:48:13;24.40;55.90
45803;DHT22;31504;51.716;9.184;2022-07-23T08:51:14;24.40;55.80
45803;DHT22;31504;51.716;9.184;2022-07-23T08:54:15;24.40;55.80
45803;DHT22;31504;51.716;9.184;2022-07-23T08:57:15;24.40;55.80
45803;DHT22;31504;51.716;9.184;2022-07-23T09:00:17;24.40;55.80
45803;DHT22;31504;51.716;9.184;2022-07-23T09:03:20;24.40;55.70
45803;DHT22;31504;51.716;9.184;2022-07-23T09:06:21;24.40;55.70
45803;DHT22;31504;51.716;9.184;2022-07-23T09:09:21;24.40;55.70
45803;DHT22;31504;51.716;9.184;2022-07-23T09:12:25;24.40;55.70
45803;DHT22;31504;51.716;9.184;2022-07-23T09:15:26;24.40;55.70
45803;DHT22;31504;51.716;9.184;2022-07-23T09:18:35;24.40;55.70
45803;DHT22;31504;51.716;9.184;2022-07-23T09:21:38;24.40;55.60
45803;DHT22;31504;51.716;9.184;2022-07-23T09:25:03;24.40;55.60
45803;DHT22;31504;51.716;9.184;2022-07-23T09:28:03;24.40;55.70
45803;DHT22;31504;51.716;9.184;2022-07-23T09:31:07;24.40;55.50
45803;DHT22;31504;51.716;9.184;2022-07-23T09:34:26;24.40;55.30
45803;DHT22;31504;51.716;9.184;2022-07-23T09:37:27;24.40;55.30
45803;DHT22;31504;51.716;9.184;2022-07-23T09:40:28;24.40;55.90
45803;DHT22;31504;51.716;9.184;2022-07-23T09:43:28;24.40;55.20
45803;DHT22;31504;51.716;9.184;2022-07-23T09:46:29;24.40;55.20
45803;DHT22;31504;51.716;9.184;2022-07-23T09:49:30;24.40;55.30
45803;DHT22;31504;51.716;9.184;2022-07-23T09:52:33;24.40;55.30
45803;DHT22;31504;51.716;9.184;2022-07-23T09:55:35;24.40;55.20
45803;DHT22;31504;51.716;9.184;2022-07-23T09:58:39;24.40;55.60
45803;DHT22;31504;51.716;9.184;2022-07-23T10:01:45;24.40;55.20
45803;DHT22;31504;51.716;9.184;2022-07-23T10:04:46;24.40;54.90
45803;DHT22;31504;51.716;9.184;2022-07-23T10:07:48;24.40;55.30
45803;DHT22;31504;51.716;9.184;2022-07-23T10:10:51;24.40;54.90
45803;DHT22;31504;51.716;9.184;2022-07-23T10:13:53;24.40;54.90
45803;DHT22;31504;51.716;9.184;2022-07-23T10:16:54;24.40;54.80
45803;DHT22;31504;51.716;9.184;2022-07-23T10:19:55;24.40;55.00
45803;DHT22;31504;51.716;9.184;2022-07-23T10:23:24;24.40;54.70
45803;DHT22;31504;51.716;9.184;2022-07-23T10:26:30;24.40;54.50
45803;DHT22;31504;51.716;9.184;2022-07-23T10:30:00;24.40;54.40
45803;DHT22;31504;51.716;9.184;2022-07-23T10:33:41;24.40;54.10
45803;DHT22;31504;51.716;9.184;2022-07-23T10:36:57;24.40;54.70
45803;DHT22;31504;51.716;9.184;2022-07-23T10:43:17;24.40;54.10
45803;DHT22;31504;51.716;9.184;2022-07-23T10:49:33;24.40;54.30
45803;DHT22;31504;51.716;9.184;2022-07-23T10:52:34;24.40;54.10
45803;DHT22;31504;51.716;9.184;2022-07-23T10:58:46;24.40;54.30
45803;DHT22;31504;51.716;9.184;2022-07-23T11:01:47;24.40;55.10
45803;DHT22;31504;51.716;9.184;2022-07-23T11:04:49;24.40;54.10
45803;DHT22;31504;51.716;9.184;2022-07-23T11:11:09;24.40;54.40
45803;DHT22;31504;51.716;9.184;2022-07-23T11:14:10;24.40;54.40
45803;DHT22;31504;51.716;9.184;2022-07-23T11:17:19;24.40;54.30
45803;DHT22;31504;51.716;9.184;2022-07-23T11:20:22;24.40;54.10
45803;DHT22;31504;51.716;9.184;2022-07-23T11:23:23;24.40;54.10
45803;DHT22;31504;51.716;9.184;2022-07-23T11:29:49;24.40;53.90
45803;DHT22;31504;51.716;9.184;2022-07-23T11:32:52;24.40;54.10
45803;DHT22;31504;51.716;9.184;2022-07-23T11:36:03;24.40;54.50
45803;DHT22;31504;51.716;9.184;2022-07-23T11:39:04;24.40;54.10
45803;DHT22;31504;51.716;9.184;2022-07-23T11:42:08;24.40;54.00
45803;DHT22;31504;51.716;9.184;2022-07-23T11:45:09;24.40;54.10
45803;DHT22;31504;51.716;9.184;2022-07-23T11:48:19;24.40;54.40
45803;DHT22;31504;51.716;9.184;2022-07-23T11:51:29;24.40;53.90
45803;DHT22;31504;51.716;9.184;2022-07-23T11:54:33;24.40;54.00
45803;DHT22;31504;51.716;9.184;2022-07-23T11:57:43;24.40;53.80
45803;DHT22;31504;51.716;9.184;2022-07-23T12:00:44;24.40;54.00
45803;DHT22;31504;51.716;9.184;2022-07-23T12:03:51;24.40;53.90
45803;DHT22;31504;51.716;9.184;2022-07-23T12:06:51;24.40;53.90
45803;DHT22;31504;51.716;9.184;2022-07-23T12:09:53;24.40;54.00
45803;DHT22;31504;51.716;9.184;2022-07-23T12:12:56;24.40;54.60
45803;DHT22;31504;51.716;9.184;2022-07-23T12:15:58;24.40;54.40
45803;DHT22;31504;51.716;9.184;2022-07-23T12:18:58;24.40;54.00
45803;DHT22;31504;51.716;9.184;2022-07-23T12:21:59;24.40;53.90
45803;DHT22;31504;51.716;9.184;2022-07-23T12:25:03;24.40;54.00
45803;DHT22;31504;51.716;9.184;2022-07-23T12:28:06;24.40;54.00
45803;DHT22;31504;51.716;9.184;2022-07-23T12:31:07;24.40;54.10
45803;DHT22;31504;51.716;9.184;2022-07-23T12:34:14;24.40;54.00
45803;DHT22;31504;51.716;9.184;2022-07-23T12:37:34;24.40;54.00
45803;DHT22;31504;51.716;9.184;2022-07-23T12:43:45;24.40;54.50
45803;DHT22;31504;51.716;9.184;2022-07-23T12:46:50;24.40;53.90
45803;DHT22;31504;51.716;9.184;2022-07-23T12:49:50;24.50;53.80
45803;DHT22;31504;51.716;9.184;2022-07-23T12:53:04;24.40;54.00
45803;DHT22;31504;51.716;9.184;2022-07-23T12:56:08;24.50;53.90
45803;DHT22;31504;51.716;9.184;2022-07-23T12:59:14;24.50;54.50
45803;DHT22;31504;51.716;9.184;2022-07-23T13:02:16;24.50;54.00
45803;DHT22;31504;51.716;9.184;2022-07-23T13:05:17;24.50;53.90
45803;DHT22;31504;51.716;9.184;2022-07-23T13:08:17;24.50;53.80
45803;DHT22;31504;51.716;9.184;2022-07-23T13:11:18;24.40;53.60
45803;DHT22;31504;51.716;9.184;2022-07-23T13:14:19;24.50;53.90
45803;DHT22;31504;51.716;9.184;2022-07-23T13:17:20;24.50;54.20
45803;DHT22;31504;51.716;9.184;2022-07-23T13:20:21;24.50;54.20
45803;DHT22;31504;51.716;9.184;2022-07-23T13:23:22;24.50;53.70
45803;DHT22;31504;51.716;9.184;2022-07-23T13:26:23;24.40;54.00
45803;DHT22;31504;51.716;9.184;2022-07-23T13:29:24;24.50;53.90
45803;DHT22;31504;51.716;9.184;2022-07-23T13:32:24;24.50;53.90
45803;DHT22;31504;51.716;9.184;2022-07-23T13:35:25;24.40;53.80
45803;DHT22;31504;51.716;9.184;2022-07-23T13:38:26;24.50;53.90
45803;DHT22;31504;51.716;9.184;2022-07-23T13:41:27;24.50;53.80
45803;DHT22;31504;51.716;9.184;2022-07-23T13:44:27;24.50;53.80
45803;DHT22;31504;51.716;9.184;2022-07-23T13:47:28;24.50;53.70
45803;DHT22;31504;51.716;9.184;2022-07-23T13:50:28;24.50;53.90
45803;DHT22;31504;51.716;9.184;2022-07-23T13:53:29;24.50;53.70
45803;DHT22;31504;51.716;9.184;2022-07-23T13:56:30;24.50;53.70
45803;DHT22;31504;51.716;9.184;2022-07-23T13:59:30;24.50;53.80
45803;DHT22;31504;51.716;9.184;2022-07-23T14:02:31;24.50;53.80
45803;DHT22;31504;51.716;9.184;2022-07-23T14:05:31;24.50;54.00
45803;DHT22;31504;51.716;9.184;2022-07-23T14:08:32;24.50;53.80
45803;DHT22;31504;51.716;9.184;2022-07-23T14:11:33;24.50;53.80
45803;DHT22;31504;51.716;9.184;2022-07-23T14:14:34;24.50;53.70
45803;DHT22;31504;51.716;9.184;2022-07-23T14:17:37;24.50;54.00
45803;DHT22;31504;51.716;9.184;2022-07-23T14:20:38;24.50;53.80
45803;DHT22;31504;51.716;9.184;2022-07-23T14:23:38;24.50;53.80
45803;DHT22;31504;51.716;9.184;2022-07-23T14:26:39;24.50;53.90
45803;DHT22;31504;51.716;9.184;2022-07-23T14:29:39;24.50;53.80
45803;DHT22;31504;51.716;9.184;2022-07-23T14:32:40;24.50;54.00
45803;DHT22;31504;51.716;9.184;2022-07-23T14:35:40;24.50;53.70
45803;DHT22;31504;51.716;9.184;2022-07-23T14:38:41;24.50;53.70
45803;DHT22;31504;51.716;9.184;2022-07-23T14:41:42;24.50;53.60
45803;DHT22;31504;51.716;9.184;2022-07-23T14:44:42;24.50;53.60
45803;DHT22;31504;51.716;9.184;2022-07-23T14:47:43;24.50;53.60
45803;DHT22;31504;51.716;9.184;2022-07-23T14:50:43;24.50;53.80
45803;DHT22;31504;51.716;9.184;2022-07-23T14:53:44;24.50;53.60
45803;DHT22;31504;51.716;9.184;2022-07-23T14:56:45;24.50;53.70
45803;DHT22;31504;51.716;9.184;2022-07-23T14:59:45;24.50;53.70
45803;DHT22;31504;51.716;9.184;2022-07-23T15:02:46;24.50;53.70
45803;DHT22;31504;51.716;9.184;2022-07-23T15:05:47;24.50;53.80
45803;DHT22;31504;51.716;9.184;2022-07-23T15:08:47;24.50;53.70
45803;DHT22;31504;51.716;9.184;2022-07-23T15:11:48;24.50;53.60
45803;DHT22;31504;51.716;9.184;2022-07-23T15:14:49;24.50;53.70
45803;DHT22;31504;51.716;9.184;2022-07-23T15:17:49;24.60;53.70
45803;DHT22;31504;51.716;9.184;2022-07-23T15:20:50;24.60;53.70
45803;DHT22;31504;51.716;9.184;2022-07-23T15:23:50;24.50;53.50
45803;DHT22;31504;51.716;9.184;2022-07-23T15:26:51;24.60;53.60
45803;DHT22;31504;51.716;9.184;2022-07-23T15:29:51;24.50;53.50
45803;DHT22;31504;51.716;9.184;2022-07-23T15:32:52;24.50;54.00
45803;DHT22;31504;51.716;9.184;2022-07-23T15:35:53;24.60;53.60
45803;DHT22;31504;51.716;9.184;2022-07-23T15:38:56;24.60;53.70
45803;DHT22;31504;51.716;9.184;2022-07-23T15:41:57;24.60;53.60
45803;DHT22;31504;51.716;9.184;2022-07-23T15:44:58;24.60;54.10
45803;DHT22;31504;51.716;9.184;2022-07-23T15:47:58;24.50;53.40
45803;DHT22;31504;51.716;9.184;2022-07-23T15:50:59;24.60;53.50
45803;DHT22;31504;51.716;9.184;2022-07-23T15:53:59;24.50;53.60
45803;DHT22;31504;51.716;9.184;2022-07-23T15:57:00;24.60;53.50
45803;DHT22;31504;51.716;9.184;2022-07-23T16:00:01;24.60;54.10
45803;DHT22;31504;51.716;9.184;2022-07-23T16:03:01;24.50;53.50
45803;DHT22;31504;51.716;9.184;2022-07-23T16:06:03;24.50;53.40
45803;DHT22;31504;51.716;9.184;2022-07-23T16:09:04;24.50;53.50
45803;DHT22;31504;51.716;9.184;2022-07-23T16:12:05;24.50;53.40
45803;DHT22;31504;51.716;9.184;2022-07-23T16:15:06;24.50;53.80
45803;DHT22;31504;51.716;9.184;2022-07-23T16:18:07;24.50;53.50
45803;DHT22;31504;51.716;9.184;2022-07-23T16:21:08;24.60;53.50
45803;DHT22;31504;51.716;9.184;2022-07-23T16:24:09;24.60;53.50
45803;DHT22;31504;51.716;9.184;2022-07-23T16:27:10;24.60;53.50
45803;DHT22;31504;51.716;9.184;2022-07-23T16:30:12;24.60;53.50
45803;DHT22;31504;51.716;9.184;2022-07-23T16:33:13;24.50;53.40
45803;DHT22;31504;51.716;9.184;2022-07-23T16:36:14;24.50;53.40
45803;DHT22;31504;51.716;9.184;2022-07-23T16:39:14;24.60;53.50
45803;DHT22;31504;51.716;9.184;2022-07-23T16:42:15;24.60;53.50
45803;DHT22;31504;51.716;9.184;2022-07-23T16:45:15;24.50;53.40
45803;DHT22;31504;51.716;9.184;2022-07-23T16:48:16;24.50;53.30
45803;DHT22;31504;51.716;9.184;2022-07-23T16:51:17;24.60;53.40
45803;DHT22;31504;51.716;9.184;2022-07-23T16:54:17;24.50;53.20
45803;DHT22;31504;51.716;9.184;2022-07-23T16:57:18;24.50;53.30
45803;DHT22;31504;51.716;9.184;2022-07-23T17:00:19;24.60;53.40
45803;DHT22;31504;51.716;9.184;2022-07-23T17:03:19;24.60;53.50
45803;DHT22;31504;51.716;9.184;2022-07-23T17:06:20;24.60;53.20
45803;DHT22;31504;51.716;9.184;2022-07-23T17:09:21;24.50;53.10
45803;DHT22;31504;51.716;9.184;2022-07-23T17:12:21;24.50;53.10
45803;DHT22;31504;51.716;9.184;2022-07-23T17:15:22;24.50;53.10
45803;DHT22;31504;51.716;9.184;2022-07-23T17:18:23;24.50;53.10
45803;DHT22;31504;51.716;9.184;2022-07-23T17:21:24;24.50;53.20
45803;DHT22;31504;51.716;9.184;2022-07-23T17:24:25;24.50;53.20
45803;DHT22;31504;51.716;9.184;2022-07-23T17:27:25;24.50;53.10
45803;DHT22;31504;51.716;9.184;2022-07-23T17:30:26;24.50;53.00
45803;DHT22;31504;51.716;9.184;2022-07-23T17:33:27;24.50;53.00
45803;DHT22;31504;51.716;9.184;2022-07-23T17:36:28;24.50;53.00
45803;DHT22;31504;51.716;9.184;2022-07-23T17:39:29;24.50;53.00
45803;DHT22;31504;51.716;9.184;2022-07-23T17:42:29;24.50;53.00
45803;DHT22;31504;51.716;9.184;2022-07-23T17:45:30;24.50;52.90
45803;DHT22;31504;51.716;9.184;2022-07-23T17:48:30;24.50;53.00
45803;DHT22;31504;51.716;9.184;2022-07-23T17:51:31;24.50;53.00
45803;DHT22;31504;51.716;9.184;2022-07-23T17:54:32;24.50;53.00
45803;DHT22;31504;51.716;9.184;2022-07-23T17:57:33;24.50;52.90
45803;DHT22;31504;51.716;9.184;2022-07-23T18:00:35;24.60;53.10
45803;DHT22;31504;51.716;9.184;2022-07-23T18:03:38;24.50;53.00
45803;DHT22;31504;51.716;9.184;2022-07-23T18:06:40;24.50;53.10
45803;DHT22;31504;51.716;9.184;2022-07-23T18:09:41;24.50;52.90
45803;DHT22;31504;51.716;9.184;2022-07-23T18:12:43;24.50;52.90
45803;DHT22;31504;51.716;9.184;2022-07-23T18:15:43;24.60;53.00
45803;DHT22;31504;51.716;9.184;2022-07-23T18:18:44;24.50;52.80
45803;DHT22;31504;51.716;9.184;2022-07-23T18:21:44;24.60;52.90
45803;DHT22;31504;51.716;9.184;2022-07-23T18:24:45;24.50;52.90
45803;DHT22;31504;51.716;9.184;2022-07-23T18:27:46;24.50;52.90
45803;DHT22;31504;51.716;9.184;2022-07-23T18:30:46;24.50;52.90
45803;DHT22;31504;51.716;9.184;2022-07-23T18:33:47;24.60;53.00
45803;DHT22;31504;51.716;9.184;2022-07-23T18:36:48;24.60;52.90
45803;DHT22;31504;51.716;9.184;2022-07-23T18:39:49;24.60;53.10
45803;DHT22;31504;51.716;9.184;2022-07-23T18:42:49;24.50;52.80
45803;DHT22;31504;51.716;9.184;2022-07-23T18:45:50;24.50;52.90
45803;DHT22;31504;51.716;9.184;2022-07-23T18:48:51;24.50;52.80
45803;DHT22;31504;51.716;9.184;2022-07-23T18:51:51;24.50;52.90
45803;DHT22;31504;51.716;9.184;2022-07-23T18:54:54;24.50;52.80
45803;DHT22;31504;51.716;9.184;2022-07-23T18:57:55;24.50;52.90
45803;DHT22;31504;51.716;9.184;2022-07-23T19:01:02;24.50;52.90
45803;DHT22;31504;51.716;9.184;2022-07-23T19:04:02;24.50;52.80
45803;DHT22;31504;51.716;9.184;2022-07-23T19:07:03;24.60;52.90
45803;DHT22;31504;51.716;9.184;2022-07-23T19:10:05;24.50;52.90
45803;DHT22;31504;51.716;9.184;2022-07-23T19:13:06;24.50;52.90
45803;DHT22;31504;51.716;9.184;2022-07-23T19:16:06;24.50;52.80
45803;DHT22;31504;51.716;9.184;2022-07-23T19:19:08;24.60;53.50
45803;DHT22;31504;51.716;9.184;2022-07-23T19:22:08;24.50;52.80
45803;DHT22;31504;51.716;9.184;2022-07-23T19:25:10;24.50;52.90